Time;durP1;ratioP1;P1;durP2;ratioP2;P2;SDS_P1;SDS_P2;PMS_P1;PMS_P2;Temp;Humidity;BMP_temperature;BMP_pressure;BME280_temperature;BME280_humidity;BME280_pressure;Samples;Min_cycle;Max_cycle;Signal;HPM_P1;HPM_P2
2022/08/06 00:01:03;;;;;;;11.35;2.50;;;;;;;16.09;61.43;102063.03;5072997;28;20044;-55
2022/08/06 00:03:30;;;;;;;12.85;2.35;;;;;;;16.07;61.24;102065.84;5072318;28;20044;-55
2022/08/06 00:05:57;;;;;;;9.65;2.45;;;;;;;16.05;61.46;102064.34;5072650;28;20398;-55
2022/08/06 00:08:24;;;;;;;12.70;2.67;;;;;;;15.92;61.50;102068.28;5073071;28;20059;-55
2022/08/06 00:10:51;;;;;;;12.27;3.03;;;;;;;15.71;62.26;102068.59;5072719;28;20049;-55
2022/08/06 00:13:18;;;;;;;8.32;2.53;;;;;;;15.77;62.13;102074.34;5055180;28;20064;-55
2022/08/06 00:15:45;;;;;;;12.57;2.50;;;;;;;15.65;62.42;102068.38;5072534;28;20082;-55
2022/08/06 00:18:12;;;;;;;9.23;2.28;;;;;;;15.62;62.11;102072.19;5072971;28;20494;-55
2022/08/06 00:20:39;;;;;;;14.32;2.53;;;;;;;15.72;62.76;102066.78;5072850;28;20056;-55
2022/08/06 00:23:06;;;;;;;13.40;2.60;;;;;;;15.63;63.08;102073.06;5072754;28;20098;-54
2022/08/06 00:25:33;;;;;;;16.60;2.80;;;;;;;15.66;62.39;102072.72;5072638;28;20102;-54
2022/08/06 00:28:00;;;;;;;14.70;2.42;;;;;;;15.71;62.62;102073.09;5073095;28;20048;-55
2022/08/06 00:30:26;;;;;;;13.88;2.35;;;;;;;15.74;62.84;102076.34;5072169;28;20118;-55
2022/08/06 00:32:56;;;;;;;11.23;2.65;;;;;;;15.79;62.09;102077.69;5071750;28;20520;-55
2022/08/06 00:35:22;;;;;;;10.38;2.95;;;;;;;15.74;62.71;102081.69;5072373;28;20109;-55
2022/08/06 00:37:50;;;;;;;11.15;3.00;;;;;;;15.74;62.58;102079.03;5087952;28;20053;-55
2022/08/06 00:40:19;;;;;;;11.20;2.90;;;;;;;15.72;62.88;102082.81;5073563;28;20477;-55
2022/08/06 00:42:46;;;;;;;10.38;2.80;;;;;;;15.65;62.97;102087.13;5075984;28;20044;-55
2022/08/06 00:45:13;;;;;;;12.50;2.90;;;;;;;15.59;63.15;102071.66;5058358;28;20521;-55
2022/08/06 00:47:40;;;;;;;8.75;2.47;;;;;;;15.60;62.85;102084.88;5058322;28;20074;-55
2022/08/06 00:50:07;;;;;;;10.82;2.58;;;;;;;15.52;63.22;102085.66;5076017;28;20049;-55
2022/08/06 00:52:34;;;;;;;12.73;2.88;;;;;;;15.57;63.21;102084.34;5075708;28;20478;-55
2022/08/06 00:55:01;;;;;;;11.63;2.75;;;;;;;15.40;63.62;102086.06;5075562;28;20402;-54
2022/08/06 00:57:27;;;;;;;8.77;2.42;;;;;;;15.42;63.82;102086.75;5075680;28;20520;-54
2022/08/06 00:59:54;;;;;;;12.68;2.55;;;;;;;15.33;64.13;102075.13;5075978;28;20044;-54
2022/08/06 01:02:21;;;;;;;12.32;2.70;;;;;;;15.31;63.80;102088.63;5074572;28;20040;-54
2022/08/06 01:04:48;;;;;;;10.50;2.60;;;;;;;15.31;63.91;102093.97;5075964;28;20048;-54
2022/08/06 01:07:15;;;;;;;8.52;2.42;;;;;;;15.28;63.79;102096.97;5075307;28;20036;-53
2022/08/06 01:09:41;;;;;;;9.88;2.40;;;;;;;15.22;64.41;102097.56;5075764;28;20486;-54
2022/08/06 01:12:08;;;;;;;7.80;2.60;;;;;;;15.18;64.49;102098.88;5074033;28;20057;-53
2022/08/06 01:14:35;;;;;;;10.13;2.53;;;;;;;15.23;64.09;102101.94;5075425;28;20485;-52
2022/08/06 01:17:08;;;;;;;8.48;2.60;;;;;;;15.17;64.56;102097.19;5074450;28;20090;-53
2022/08/06 01:19:46;;;;;;;9.05;2.60;;;;;;;15.07;64.76;102096.41;5057257;28;20049;-54
2022/08/06 01:22:53;;;;;;;8.35;2.33;;;;;;;14.95;65.17;102110.00;5075249;28;20513;-54
2022/08/06 01:28:28;;;;;;;9.65;2.50;;;;;;;14.88;65.76;102116.94;5110939;27;20373;-54
2022/08/06 01:31:03;;;;;;;12.05;2.55;;;;;;;14.93;65.48;102114.63;5111385;28;20508;-53
2022/08/06 01:33:42;;;;;;;14.07;2.50;;;;;;;14.91;65.18;102121.13;5110574;28;20047;-53
2022/08/06 01:36:14;;;;;;;11.25;2.65;;;;;;;14.74;66.25;102114.75;5103214;28;20086;-54
2022/08/06 01:38:44;;;;;;;9.90;2.60;;;;;;;14.75;66.04;102109.25;5110342;28;20137;-54
2022/08/06 01:41:38;;;;;;;12.63;2.80;;;;;;;14.75;66.22;102117.28;5110677;28;20036;-55
2022/08/06 01:44:09;;;;;;;9.20;2.80;;;;;;;14.74;66.44;102120.09;5109722;28;20044;-55
2022/08/06 01:46:36;;;;;;;;;;;;;;;14.69;66.76;102120.53;5109724;28;20119;-55
2022/08/06 01:49:06;;;;;;;9.90;2.42;;;;;;;14.73;66.79;102123.72;5110671;28;19923;-54
2022/08/06 01:51:34;;;;;;;13.18;3.00;;;;;;;14.71;67.26;102131.88;5110925;28;20052;-54
2022/08/06 01:54:04;;;;;;;10.55;2.80;;;;;;;14.57;67.11;102130.56;5109446;28;20052;-54
2022/08/06 01:56:33;;;;;;;11.70;2.70;;;;;;;14.67;66.92;102129.69;5110520;28;20047;-54
2022/08/06 01:59:03;;;;;;;14.80;2.95;;;;;;;14.47;67.92;102135.06;5110595;28;20046;-54
2022/08/06 02:01:32;;;;;;;9.93;2.80;;;;;;;14.64;67.38;102130.78;5110615;28;20125;-55
2022/08/06 02:04:00;;;;;;;15.27;3.22;;;;;;;14.65;67.73;102142.34;5110000;28;20051;-55
2022/08/06 02:06:34;;;;;;;13.65;2.80;;;;;;;14.72;67.31;102136.25;5110003;28;20085;-55
2022/08/06 02:09:04;;;;;;;14.55;3.13;;;;;;;14.73;67.67;102140.59;5110635;28;20068;-55
2022/08/06 02:11:34;;;;;;;8.90;2.88;;;;;;;14.59;67.61;102139.25;5110101;28;20039;-55
2022/08/06 02:14:02;;;;;;;12.57;2.60;;;;;;;14.61;67.54;102138.25;5110508;28;20060;-54
2022/08/06 02:16:34;;;;;;;14.05;3.10;;;;;;;14.59;67.54;102141.94;5109921;28;20040;-55
2022/08/06 02:19:03;;;;;;;8.07;2.90;;;;;;;14.52;67.65;102140.81;5110367;28;20055;-55
2022/08/06 02:21:32;;;;;;;13.30;2.85;;;;;;;14.46;68.08;102148.53;5110037;28;20075;-54
2022/08/06 02:24:04;;;;;;;11.82;3.08;;;;;;;14.48;67.74;102141.22;5110188;28;20048;-54
2022/08/06 02:26:33;;;;;;;13.48;3.33;;;;;;;14.33;68.32;102136.34;5109545;28;20060;-54
2022/08/06 02:29:04;;;;;;;9.45;3.08;;;;;;;14.34;68.87;102134.53;5110216;28;20044;-55
2022/08/06 02:31:31;;;;;;;14.02;3.33;;;;;;;14.37;69.04;102145.78;5109403;28;20069;-50
2022/08/06 02:33:58;;;;;;;11.57;3.30;;;;;;;14.40;68.90;102137.44;5110117;28;20460;-53
2022/08/06 02:36:35;;;;;;;11.57;3.45;;;;;;;14.37;68.64;102145.78;5109715;28;20565;-54
2022/08/06 02:39:15;;;;;;;11.60;3.30;;;;;;;14.35;69.06;102150.41;5100197;28;20059;-55
2022/08/06 02:41:56;;;;;;;15.98;3.47;;;;;;;14.33;68.81;102146.19;5096160;28;20520;-54
2022/08/06 02:44:40;;;;;;;11.73;3.33;;;;;;;14.22;69.57;102149.88;5096641;28;20044;-54
2022/08/06 02:47:13;;;;;;;13.32;3.13;;;;;;;14.20;69.49;102146.50;5096148;28;20622;-54
2022/08/06 02:49:45;;;;;;;12.07;3.80;;;;;;;14.26;69.49;102148.63;5096319;28;20052;-54
2022/08/06 02:52:17;;;;;;;15.93;3.20;;;;;;;14.26;69.36;102153.09;5096167;28;20127;-54
2022/08/06 02:54:50;;;;;;;13.55;3.42;;;;;;;14.30;69.34;102152.69;5096300;28;20052;-54
2022/08/06 02:57:22;;;;;;;13.80;3.40;;;;;;;14.27;69.33;102162.78;5096262;28;20040;-54
2022/08/06 02:59:53;;;;;;;11.20;3.10;;;;;;;14.27;69.87;102160.97;5094883;28;20044;-55
2022/08/06 03:02:23;;;;;;;9.63;3.10;;;;;;;14.23;69.62;102153.41;5095819;28;20036;-55
2022/08/06 03:04:52;;;;;;;12.45;3.40;;;;;;;14.24;69.23;102166.56;5092485;28;20105;-55
2022/08/06 03:07:24;;;;;;;17.13;3.30;;;;;;;14.09;69.50;102152.00;5097791;28;20044;-55
2022/08/06 03:09:52;;;;;;;13.25;3.33;;;;;;;14.00;70.61;102159.88;5077728;28;20040;-55
2022/08/06 03:12:20;;;;;;;10.60;3.25;;;;;;;13.96;71.09;102155.81;5108185;28;20044;-54
2022/08/06 03:14:48;;;;;;;13.30;3.13;;;;;;;13.94;70.65;102162.28;5093505;28;20040;-55
2022/08/06 03:17:16;;;;;;;12.98;3.00;;;;;;;13.95;71.15;102161.28;5095201;28;20589;-55
2022/08/06 03:19:45;;;;;;;12.93;3.58;;;;;;;13.97;71.16;102162.84;5094973;28;20048;-55
2022/08/06 03:22:13;;;;;;;11.82;3.50;;;;;;;13.93;71.09;102165.91;5093783;28;20051;-55
2022/08/06 03:24:42;;;;;;;10.70;3.25;;;;;;;13.97;70.87;102161.97;5095037;28;20055;-53
2022/08/06 03:27:10;;;;;;;13.30;3.47;;;;;;;13.94;70.89;102164.94;5094953;28;20040;-54
2022/08/06 03:29:40;;;;;;;15.00;3.40;;;;;;;13.98;71.39;102167.19;5093968;28;20048;-54
2022/08/06 03:32:11;;;;;;;11.60;3.55;;;;;;;13.89;71.38;102170.69;5093366;28;20501;-53
2022/08/06 03:34:39;;;;;;;12.57;3.38;;;;;;;13.82;71.78;102162.44;5094925;28;20052;-53
2022/08/06 03:37:08;;;;;;;12.43;3.55;;;;;;;13.68;72.49;102165.50;5095225;28;20379;-54
2022/08/06 03:39:38;;;;;;;10.65;3.55;;;;;;;13.67;72.52;102177.16;5093999;28;20055;-53
2022/08/06 03:42:06;;;;;;;19.45;3.63;;;;;;;13.50;72.99;102173.34;5095514;28;20091;-50
2022/08/06 03:44:34;;;;;;;15.23;3.33;;;;;;;13.56;73.09;102171.97;5094928;28;20044;-53
2022/08/06 03:47:10;;;;;;;17.95;4.18;;;;;;;13.59;72.78;102169.03;5095756;28;20046;-54
2022/08/06 03:49:45;;;;;;;14.18;3.63;;;;;;;13.56;72.91;102178.13;5093713;28;20041;-54
2022/08/06 03:52:17;;;;;;;15.68;3.70;;;;;;;13.59;72.92;102180.53;5094770;28;20059;-54
2022/08/06 03:54:48;;;;;;;15.00;3.83;;;;;;;13.59;72.47;102166.34;5095504;28;20042;-54
2022/08/06 03:57:19;;;;;;;13.73;3.60;;;;;;;13.58;72.47;102175.31;5094662;28;20054;-53
2022/08/06 03:59:50;;;;;;;11.82;3.58;;;;;;;13.62;72.39;102174.91;5094805;28;20043;-54
2022/08/06 04:02:18;;;;;;;14.63;3.42;;;;;;;13.66;72.61;102174.63;5095231;28;20044;-54
2022/08/06 04:04:46;;;;;;;15.10;3.30;;;;;;;13.71;72.66;102183.06;5094440;28;20047;-55
2022/08/06 04:07:15;;;;;;;13.75;3.53;;;;;;;13.73;72.84;102189.09;5095508;28;20040;-55
2022/08/06 04:09:44;;;;;;;13.02;3.40;;;;;;;13.76;72.46;102183.47;5094685;28;20079;-55
2022/08/06 04:12:11;;;;;;;13.13;3.40;;;;;;;13.74;72.70;102185.44;5095077;28;20036;-54
2022/08/06 04:14:38;;;;;;;15.73;3.40;;;;;;;13.66;72.85;102196.81;5095142;28;20089;-53
2022/08/06 04:17:05;;;;;;;11.57;3.50;;;;;;;13.73;72.50;102189.09;5095313;28;20044;-55
2022/08/06 04:19:33;;;;;;;14.48;3.40;;;;;;;13.70;73.37;102184.88;5094858;28;20253;-55
2022/08/06 04:22:00;;;;;;;18.27;3.50;;;;;;;13.66;73.28;102190.63;5094954;28;20051;-53
2022/08/06 04:24:26;;;;;;;11.88;3.75;;;;;;;13.68;73.44;102196.66;5094536;28;20054;-54
2022/08/06 04:26:58;;;;;;;13.30;3.45;;;;;;;13.75;73.61;102195.13;5093513;28;20056;-54
2022/08/06 04:29:25;;;;;;;12.07;3.53;;;;;;;13.83;73.09;102195.28;5094960;28;20055;-54
2022/08/06 04:31:53;;;;;;;10.52;3.67;;;;;;;13.98;73.06;102203.69;5076769;28;20069;-54
2022/08/06 04:34:23;;;;;;;16.45;3.60;;;;;;;13.92;72.69;102210.44;5090518;28;20048;-54
2022/08/06 04:36:51;;;;;;;16.13;4.05;;;;;;;13.91;72.65;102205.22;5096765;28;20044;-54
2022/08/06 04:39:20;;;;;;;13.98;3.90;;;;;;;13.89;72.72;102213.38;5093975;28;20047;-54
2022/08/06 04:41:47;;;;;;;21.02;4.32;;;;;;;13.87;72.91;102210.00;5094179;28;20040;-53
2022/08/06 04:44:14;;;;;;;13.45;4.05;;;;;;;13.91;72.83;102213.25;5093990;28;20052;-54
2022/08/06 04:46:43;;;;;;;13.98;3.65;;;;;;;13.83;72.95;102222.78;5094672;28;20105;-54
2022/08/06 04:49:09;;;;;;;16.85;3.20;;;;;;;13.99;72.97;102224.91;5094403;28;20094;-55
2022/08/06 04:51:37;;;;;;;15.15;3.55;;;;;;;14.05;72.56;102218.16;5093456;28;20040;-54
2022/08/06 04:54:05;;;;;;;10.45;3.42;;;;;;;14.07;72.68;102226.84;5094269;28;20044;-53
2022/08/06 04:56:32;;;;;;;18.73;4.35;;;;;;;14.00;72.42;102234.56;5094065;28;20052;-54
2022/08/06 04:58:59;;;;;;;14.40;3.90;;;;;;;14.09;72.90;102238.22;5093435;28;20044;-55
2022/08/06 05:01:26;;;;;;;15.50;3.60;;;;;;;14.19;72.76;102235.56;5091988;28;20436;-54
2022/08/06 05:03:53;;;;;;;16.63;4.40;;;;;;;14.21;72.50;102239.78;5093725;28;20098;-53
2022/08/06 05:09:06;;;;;;;15.82;3.90;;;;;;;14.08;72.36;102241.91;5111279;27;20380;-54
2022/08/06 05:11:40;;;;;;;12.60;3.85;;;;;;;14.20;73.13;102243.41;5111174;28;20117;-53
2022/08/06 05:14:15;;;;;;;20.08;4.20;;;;;;;14.14;72.55;102241.31;5104313;28;20055;-53
2022/08/06 05:16:45;;;;;;;13.30;4.47;;;;;;;14.16;72.64;102247.34;5090759;28;20051;-53
2022/08/06 05:19:19;;;;;;;15.27;4.40;;;;;;;14.29;72.65;102247.06;5090467;28;20048;-53
2022/08/06 05:21:50;;;;;;;18.02;4.60;;;;;;;14.29;72.42;102247.06;5091132;28;20054;-54
2022/08/06 05:24:18;;;;;;;18.80;4.57;;;;;;;14.28;72.26;102242.72;5090946;28;20097;-52
2022/08/06 05:26:46;;;;;;;15.90;4.78;;;;;;;14.28;73.14;102247.22;5088980;28;20462;-52
2022/08/06 05:29:19;;;;;;;19.05;5.53;;;;;;;14.25;72.35;102253.69;5093428;28;20078;-53
2022/08/06 05:31:46;;;;;;;19.27;4.80;;;;;;;14.31;72.30;102249.59;5110163;28;20044;-54
2022/08/06 05:34:14;;;;;;;19.20;5.15;;;;;;;14.21;72.36;102258.47;5111247;28;20398;-52
2022/08/06 05:36:41;;;;;;;19.75;4.93;;;;;;;14.28;72.74;102261.41;5110633;28;20046;-53
2022/08/06 05:39:08;;;;;;;18.10;5.28;;;;;;;14.26;72.88;102257.19;5110864;28;20546;-54
2022/08/06 05:41:35;;;;;;;16.50;4.93;;;;;;;14.28;72.66;102260.56;5111273;28;20558;-52
2022/08/06 05:44:02;;;;;;;19.27;5.38;;;;;;;14.24;72.75;102262.66;5110860;28;20048;-54
2022/08/06 05:46:35;;;;;;;19.15;5.10;;;;;;;14.32;72.66;102269.97;5111525;28;20051;-54
2022/08/06 05:49:10;;;;;;;28.40;5.55;;;;;;;14.34;72.82;102268.84;5110675;28;20047;-53
2022/08/06 05:51:52;;;;;;;16.27;5.32;;;;;;;14.48;72.63;102264.03;5110467;28;20044;-54
2022/08/06 05:54:48;;;;;;;18.50;5.63;;;;;;;14.64;72.53;102260.81;5110706;28;20060;-52
2022/08/06 05:57:24;;;;;;;19.55;5.72;;;;;;;14.78;72.13;102271.06;5110035;28;20482;-50
2022/08/06 05:59:58;;;;;;;21.85;5.80;;;;;;;14.82;71.64;102272.44;5108217;28;20071;-54
2022/08/06 06:02:27;;;;;;;17.17;5.95;;;;;;;14.84;71.88;102272.31;5089364;28;20445;-53
2022/08/06 06:04:54;;;;;;;23.17;5.90;;;;;;;14.76;72.22;102273.88;5091751;28;20385;-53
2022/08/06 06:07:21;;;;;;;23.50;6.13;;;;;;;14.80;71.84;102269.09;5108412;28;20055;-53
2022/08/06 06:09:49;;;;;;;19.25;6.10;;;;;;;14.79;71.86;102272.75;5110487;28;20547;-53
2022/08/06 06:12:17;;;;;;;16.08;6.13;;;;;;;14.90;72.42;102269.91;5109812;28;20047;-54
2022/08/06 06:14:47;;;;;;;16.27;5.80;;;;;;;14.89;71.61;102270.03;5109858;28;20402;-53
2022/08/06 06:17:29;;;;;;;22.75;6.40;;;;;;;14.93;71.10;102272.25;5110273;28;20461;-53
2022/08/06 06:20:29;;;;;;;17.90;5.95;;;;;;;15.06;71.51;102271.97;5098939;28;20458;-53
2022/08/06 06:23:04;;;;;;;25.88;6.97;;;;;;;15.00;70.88;102277.03;5096308;28;20052;-53
2022/08/06 06:25:36;;;;;;;18.00;6.82;;;;;;;14.98;71.39;102275.34;5096098;28;20401;-53
2022/08/06 06:28:18;;;;;;;20.20;6.80;;;;;;;15.18;71.32;102280.63;5097051;28;20446;-54
2022/08/06 06:30:55;;;;;;;18.92;6.40;;;;;;;15.19;71.56;102281.47;5094771;28;20064;-54
2022/08/06 06:33:47;;;;;;;21.17;6.55;;;;;;;15.14;71.13;102282.75;5096538;28;20044;-54
2022/08/06 06:36:23;;;;;;;21.30;5.82;;;;;;;15.16;70.50;102279.94;5095813;28;20044;-54
2022/08/06 06:39:05;;;;;;;19.25;5.30;;;;;;;15.21;69.79;102285.69;5095940;28;20040;-54
2022/08/06 06:41:40;;;;;;;18.38;6.15;;;;;;;15.25;69.39;102295.09;5095738;28;20044;-54
2022/08/06 06:44:20;;;;;;;17.52;6.20;;;;;;;15.30;70.14;102289.31;5095846;28;20489;-54
2022/08/06 06:47:00;;;;;;;16.05;5.82;;;;;;;15.31;68.96;102299.84;5095468;28;20044;-54
2022/08/06 06:49:44;;;;;;;20.85;6.22;;;;;;;15.35;69.36;102295.03;5094355;28;20110;-55
2022/08/06 06:52:24;;;;;;;19.27;5.75;;;;;;;15.42;69.45;102295.31;5095486;28;20134;-54
2022/08/06 06:54:57;;;;;;;17.48;5.88;;;;;;;15.44;68.77;102299.50;5095699;28;20089;-54
2022/08/06 06:57:31;;;;;;;21.80;5.88;;;;;;;15.48;68.38;102300.03;5095897;28;20050;-55
2022/08/06 07:00:05;;;;;;;17.73;4.88;;;;;;;15.68;68.23;102307.00;5077473;28;20117;-55
2022/08/06 07:02:35;;;;;;;15.65;4.95;;;;;;;15.74;67.67;102305.59;5057456;28;20048;-54
2022/08/06 07:05:05;;;;;;;15.23;4.25;;;;;;;15.97;67.37;102308.69;5075364;28;20101;-54
2022/08/06 07:07:34;;;;;;;15.95;3.95;;;;;;;15.95;66.76;102307.97;5073925;28;20048;-55
2022/08/06 07:10:03;;;;;;;16.88;4.63;;;;;;;15.91;66.96;102309.28;5085751;28;20048;-55
2022/08/06 07:12:34;;;;;;;17.10;3.65;;;;;;;16.05;66.72;102311.44;5095092;28;20043;-54
2022/08/06 07:15:04;;;;;;;9.82;2.97;;;;;;;16.10;66.53;102314.50;5087149;28;20048;-54
2022/08/06 07:17:34;;;;;;;14.52;3.08;;;;;;;16.07;65.33;102322.81;5076317;28;20052;-54
2022/08/06 07:20:04;;;;;;;10.70;2.70;;;;;;;16.17;65.54;102319.22;5074785;28;20411;-54
2022/08/06 07:22:33;;;;;;;11.75;2.55;;;;;;;16.29;64.88;102324.19;5069600;28;20062;-55
2022/08/06 07:25:03;;;;;;;12.35;2.88;;;;;;;16.14;63.92;102323.06;5075121;28;20502;-55
2022/08/06 07:27:37;;;;;;;10.65;2.40;;;;;;;16.24;62.95;102328.34;5074134;28;20516;-52
2022/08/06 07:30:06;;;;;;;14.20;2.55;;;;;;;16.18;64.29;102329.78;5077492;28;20035;-53
2022/08/06 07:32:35;;;;;;;12.43;2.53;;;;;;;16.27;63.03;102333.41;5097056;28;20044;-55
2022/08/06 07:35:04;;;;;;;16.13;2.92;;;;;;;16.20;64.26;102335.84;5091147;28;20052;-54
2022/08/06 07:37:32;;;;;;;9.63;2.35;;;;;;;16.16;62.88;102331.78;5073128;28;20638;-54
2022/08/06 07:40:03;;;;;;;7.43;2.00;;;;;;;16.27;62.86;102334.22;5074081;28;20513;-54
2022/08/06 07:42:30;;;;;;;9.77;1.95;;;;;;;16.35;61.88;102340.66;5093091;28;20543;-52
2022/08/06 07:45:01;;;;;;;7.70;1.70;;;;;;;16.49;61.91;102337.44;5094742;28;20117;-55
2022/08/06 07:47:36;;;;;;;8.98;2.00;;;;;;;16.44;61.51;102339.72;5095030;28;20044;-53
2022/08/06 07:50:04;;;;;;;9.00;1.98;;;;;;;16.53;60.83;102337.97;5093910;28;20110;-54
2022/08/06 07:52:32;;;;;;;11.90;1.90;;;;;;;16.65;60.72;102334.88;5095485;28;20058;-54
2022/08/06 07:55:00;;;;;;;6.65;1.70;;;;;;;16.65;59.54;102337.56;5077480;28;20093;-53
2022/08/06 07:57:31;;;;;;;10.55;1.50;;;;;;;16.68;57.94;102336.41;5062632;28;20048;-54
2022/08/06 07:59:59;;;;;;;8.20;1.73;;;;;;;16.77;58.33;102338.19;5095530;28;20044;-54
2022/08/06 08:02:28;;;;;;;9.38;1.52;;;;;;;16.80;58.38;102339.69;5111735;28;20048;-55
2022/08/06 08:07:45;;;;;;;9.15;2.03;;;;;;;16.95;58.44;102334.63;5094163;28;20066;-55
2022/08/06 08:10:12;;;;;;;7.55;1.42;;;;;;;16.86;55.35;102331.03;5093897;28;20486;-53
2022/08/06 08:12:44;;;;;;;7.65;1.60;;;;;;;16.89;54.98;102333.44;5094894;28;20401;-54
2022/08/06 08:15:11;;;;;;;6.50;1.50;;;;;;;16.91;55.96;102338.63;5059748;28;20044;-52
2022/08/06 08:17:37;;;;;;;11.00;1.50;;;;;;;16.96;56.81;102334.47;5093914;28;20552;-55
2022/08/06 08:20:06;;;;;;;12.07;1.60;;;;;;;17.14;57.19;102331.75;5094918;28;20069;-55
2022/08/06 08:22:34;;;;;;;5.93;1.63;;;;;;;17.29;56.91;102339.19;5093462;28;20508;-54
2022/08/06 08:25:01;;;;;;;6.10;1.50;;;;;;;17.39;55.02;102324.66;5099492;28;20122;-60
2022/08/06 08:27:27;;;;;;;7.03;1.60;;;;;;;17.43;53.83;102334.06;5083269;28;20040;-54
2022/08/06 08:29:54;;;;;;;5.93;1.42;;;;;;;17.61;53.36;102333.16;5093894;28;20048;-55
2022/08/06 08:32:21;;;;;;;7.97;1.60;;;;;;;17.53;52.32;102331.25;5092109;28;20071;-53
2022/08/06 08:34:48;;;;;;;7.43;1.63;;;;;;;17.53;53.63;102331.25;5092330;28;20040;-55
2022/08/06 08:37:18;;;;;;;8.15;1.65;;;;;;;17.71;56.80;102339.22;5093713;28;20040;-54
2022/08/06 08:39:45;;;;;;;11.57;1.92;;;;;;;17.92;54.58;102338.81;5080600;28;20150;-45
2022/08/06 08:42:21;;;;;;;77.20;15.60;;;;;;;17.78;54.64;102336.72;5086048;28;20497;-55
2022/08/06 08:44:49;;;;;;;224.65;42.72;;;;;;;17.89;57.31;102339.13;5093872;28;20063;-54
2022/08/06 08:47:20;;;;;;;29.98;4.03;;;;;;;17.86;55.74;102333.25;5088016;28;20046;-53
2022/08/06 08:49:52;;;;;;;6.47;1.40;;;;;;;17.78;54.35;102331.34;5093191;28;20448;-60
2022/08/06 08:52:27;;;;;;;9.15;1.90;;;;;;;17.87;55.01;102334.94;5089744;28;20067;-60
2022/08/06 08:54:58;;;;;;;8.50;1.73;;;;;;;18.00;55.09;102337.97;5078139;28;20036;-61
2022/08/06 08:57:26;;;;;;;5.72;1.60;;;;;;;18.12;54.11;102333.97;5096351;28;20059;-60
2022/08/06 08:59:53;;;;;;;7.68;1.65;;;;;;;18.07;54.17;102330.13;5093733;28;20157;-59
2022/08/06 09:02:20;;;;;;;8.55;1.70;;;;;;;18.10;55.05;102340.50;5092827;28;20559;-59
2022/08/06 09:04:47;;;;;;;9.15;1.50;;;;;;;17.90;52.71;102340.81;5090887;28;20047;-59
2022/08/06 09:07:14;;;;;;;9.73;2.00;;;;;;;17.95;53.06;102333.09;5091646;28;20071;-58
2022/08/06 09:09:41;;;;;;;4.32;1.60;;;;;;;17.93;50.97;102335.09;5090675;28;20040;-59
2022/08/06 09:12:08;;;;;;;7.55;1.40;;;;;;;18.07;49.90;102339.00;5093691;28;20036;-58
2022/08/06 09:14:36;;;;;;;7.72;1.20;;;;;;;18.18;49.50;102346.75;5091979;28;20040;-59
2022/08/06 09:17:05;;;;;;;5.78;1.30;;;;;;;18.32;49.61;102344.41;5078884;28;20062;-59
2022/08/06 09:19:33;;;;;;;5.10;1.40;;;;;;;18.39;49.10;102343.59;5079176;28;20040;-59
2022/08/06 09:22:02;;;;;;;4.80;1.20;;;;;;;18.66;49.05;102340.72;5090146;28;20055;-59
2022/08/06 09:24:28;;;;;;;7.03;1.35;;;;;;;18.55;48.66;102344.59;5086782;28;20047;-59
2022/08/06 09:27:06;;;;;;;7.10;1.55;;;;;;;18.61;48.91;102347.44;5089549;28;20052;-59
2022/08/06 09:29:33;;;;;;;8.30;2.58;;;;;;;18.71;48.80;102341.91;5071984;28;20127;-60
2022/08/06 09:32:04;;;;;;;4.63;1.30;;;;;;;18.90;48.39;102338.06;5089863;28;20057;-60
2022/08/06 09:34:35;;;;;;;6.10;1.13;;;;;;;18.80;47.54;102345.41;5096952;28;20055;-60
2022/08/06 09:37:02;;;;;;;10.63;1.67;;;;;;;19.16;48.54;102348.59;5099711;28;20043;-60
2022/08/06 09:39:37;;;;;;;5.47;1.30;;;;;;;19.23;47.05;102337.13;5098839;28;20051;-59
2022/08/06 09:42:04;;;;;;;5.72;1.33;;;;;;;19.46;46.84;102338.03;5073648;28;20079;-60
2022/08/06 09:44:30;;;;;;;3.70;1.17;;;;;;;19.63;46.27;102341.53;5085954;28;20047;-60
2022/08/06 09:46:59;;;;;;;7.93;1.25;;;;;;;19.65;44.31;102344.06;5088064;28;20097;-47
2022/08/06 09:49:27;;;;;;;8.40;1.50;;;;;;;19.70;44.94;102342.50;5080113;28;20065;-46
2022/08/06 09:52:11;;;;;;;11.45;1.45;;;;;;;19.58;44.39;102337.69;5089542;28;20043;-47
2022/08/06 09:54:39;;;;;;;10.43;3.00;;;;;;;19.62;44.99;102339.00;5096934;28;20043;-46
2022/08/06 09:57:05;;;;;;;14.45;4.07;;;;;;;19.74;45.43;102335.78;5116586;28;20036;-50
2022/08/06 09:59:48;;;;;;;6.05;1.92;;;;;;;19.90;44.02;102339.38;5111295;28;20046;-49
2022/08/06 10:02:17;;;;;;;7.45;2.03;;;;;;;19.77;44.17;102334.56;5097259;28;20452;-49
2022/08/06 10:04:44;;;;;;;5.28;1.48;;;;;;;19.73;44.92;102342.16;5103607;28;20375;-50
2022/08/06 10:07:11;;;;;;;6.35;1.45;;;;;;;19.58;44.25;102337.69;5087016;28;20053;-49
2022/08/06 10:09:51;;;;;;;4.95;1.23;;;;;;;19.53;44.74;102341.72;5094704;28;20093;-55
2022/08/06 10:12:21;;;;;;;7.40;1.70;;;;;;;19.28;44.92;102345.50;5102797;28;20165;-55
2022/08/06 10:14:48;;;;;;;3.53;1.10;;;;;;;19.27;44.62;102346.53;5091217;28;20102;-55
2022/08/06 10:17:18;;;;;;;4.97;1.00;;;;;;;19.09;44.88;102344.06;5103805;28;20047;-51
2022/08/06 10:19:47;;;;;;;4.97;1.30;;;;;;;19.05;45.17;102340.88;5110098;28;20066;-53
2022/08/06 10:22:17;;;;;;;8.18;1.80;;;;;;;19.17;46.24;102344.91;5076302;28;20064;-53
2022/08/06 10:24:46;;;;;;;4.57;1.27;;;;;;;19.13;45.52;102342.72;5091927;28;20089;-53
2022/08/06 10:27:19;;;;;;;5.10;1.40;;;;;;;19.78;44.05;102341.66;5089203;28;20048;-53
2022/08/06 10:29:58;;;;;;;5.72;1.10;;;;;;;19.50;43.38;102339.41;5109125;28;20036;-53
2022/08/06 10:32:39;;;;;;;6.03;1.20;;;;;;;19.25;42.82;102351.25;5084553;28;20048;-51
2022/08/06 10:35:06;;;;;;;5.63;1.20;;;;;;;19.26;43.21;102340.31;5081795;28;20404;-49
2022/08/06 10:37:37;;;;;;;5.57;1.20;;;;;;;19.45;42.83;102338.25;5087663;28;20097;-52
2022/08/06 10:40:07;;;;;;;6.53;2.10;;;;;;;19.44;42.96;102337.38;5111989;28;20114;-51
2022/08/06 10:42:38;;;;;;;7.55;1.30;;;;;;;19.78;43.00;102327.38;5106092;28;20425;-54
2022/08/06 10:45:07;;;;;;;4.20;1.20;;;;;;;19.94;42.03;102332.66;5116057;28;20374;-51
2022/08/06 10:47:34;;;;;;;3.60;1.30;;;;;;;20.16;41.80;102328.28;5097802;28;20044;-52
2022/08/06 10:50:02;;;;;;;4.65;1.00;;;;;;;20.31;41.55;102326.47;5107418;28;20365;-51
2022/08/06 10:52:29;;;;;;;5.20;1.20;;;;;;;20.56;40.48;102326.28;5101850;28;20043;-52
2022/08/06 10:54:59;;;;;;;4.03;1.10;;;;;;;20.40;41.63;102319.19;5081351;28;20456;-52
2022/08/06 10:57:27;;;;;;;7.40;1.20;;;;;;;19.85;40.60;102326.47;5085718;28;20048;-51
2022/08/06 10:59:54;;;;;;;4.80;1.10;;;;;;;20.06;42.24;102325.81;5090415;28;20046;-51
2022/08/06 11:02:36;;;;;;;6.78;1.40;;;;;;;20.00;41.58;102328.41;5115713;28;20489;-52
2022/08/06 11:05:08;;;;;;;4.85;1.20;;;;;;;20.39;40.53;102335.53;5102552;28;20048;-52
2022/08/06 11:11:03;;;;;;;5.50;1.13;;;;;;;20.66;40.21;102320.66;5049533;28;20403;-53
2022/08/06 11:13:35;;;;;;;12.57;1.65;;;;;;;20.87;39.66;102315.41;5048618;28;20045;-60
2022/08/06 11:16:03;;;;;;;7.00;1.40;;;;;;;20.98;39.88;102315.97;5038037;28;20060;-59
2022/08/06 11:18:30;;;;;;;8.25;1.33;;;;;;;20.88;40.12;102316.22;5051122;28;20052;-59
2022/08/06 11:21:00;;;;;;;6.05;1.30;;;;;;;20.90;38.55;102316.88;5031155;28;20046;-59
2022/08/06 11:23:29;;;;;;;3.78;1.27;;;;;;;21.06;38.11;102314.00;5048858;28;20041;-59
2022/08/06 11:26:00;;;;;;;5.10;1.73;;;;;;;21.37;37.06;102310.28;5048160;28;20147;-59
2022/08/06 11:31:05;;;;;;;8.68;1.42;;;;;;;22.35;35.72;102316.19;5110992;27;20885;-58
2022/08/06 11:36:23;;;;;;;5.05;1.30;;;;;;;22.32;35.80;102313.03;5152018;27;20822;-59
2022/08/06 11:38:57;;;;;;;5.07;1.00;;;;;;;22.04;34.42;102308.38;5122159;27;20055;-58
2022/08/06 11:41:28;;;;;;;7.63;1.27;;;;;;;21.53;36.25;102303.88;5131388;27;20051;-61
2022/08/06 11:46:34;;;;;;;7.85;1.80;;;;;;;21.81;37.11;102298.59;5106023;27;20409;-58
2022/08/06 11:51:47;;;;;;;6.40;1.50;;;;;;;21.58;37.96;102298.75;5110622;27;20701;-58
2022/08/06 11:54:32;;;;;;;3.92;1.10;;;;;;;21.57;36.98;102301.63;5127243;28;20047;-58
2022/08/06 11:59:38;;;;;;;6.13;1.23;;;;;;;21.36;38.42;102294.31;5102331;27;20393;-64